createdAt,value
2019-05-29T04:03:04.348Z,46.80
2019-05-29T04:06:00.035Z,46.70
2019-05-29T04:08:55.486Z,46.60
2019-05-29T04:11:49.477Z,46.50
2019-05-29T04:14:44.226Z,46.50
2019-05-29T04:17:38.603Z,46.40
2019-05-29T04:20:35.871Z,46.70
2019-05-29T04:23:38.259Z,44.80
2019-05-29T04:26:46.591Z,44.30
2019-05-29T04:29:41.024Z,43.80
2019-05-29T04:32:38.489Z,43.00
2019-05-29T04:35:34.690Z,42.60
2019-05-29T04:38:30.926Z,42.30
2019-05-29T04:41:25.849Z,42.10
2019-05-29T04:44:19.915Z,42.40
2019-05-29T04:47:15.577Z,42.10
2019-05-29T04:50:08.712Z,42.40
2019-05-29T04:53:05.629Z,45.70
2019-05-29T04:55:58.979Z,44.80
2019-05-29T04:58:52.736Z,44.10
2019-05-29T05:01:45.135Z,44.00
2019-05-29T05:04:41.792Z,44.10
2019-05-29T05:07:43.070Z,44.60
2019-05-29T05:10:41.203Z,46.70
2019-05-29T05:13:35.568Z,47.30
2019-05-29T05:16:35.761Z,46.80
2019-05-29T05:19:35.951Z,46.00
2019-05-29T05:22:38.205Z,46.00
2019-05-29T05:25:41.268Z,48.00
2019-05-29T05:28:45.270Z,46.90
2019-05-29T05:31:38.793Z,46.90
2019-05-29T05:34:32.603Z,46.50
2019-05-29T05:37:27.180Z,46.10
2019-05-29T05:40:30.786Z,45.60
2019-05-29T05:43:30.735Z,45.40
2019-05-29T05:46:30.932Z,45.10
2019-05-29T05:49:24.998Z,45.10
2019-05-29T05:52:26.220Z,45.00
2019-05-29T05:55:23.705Z,44.50
2019-05-29T05:58:22.965Z,44.70
2019-05-29T06:01:22.277Z,44.80
2019-05-29T06:04:18.367Z,45.00
2019-05-29T06:07:12.401Z,44.60
2019-05-29T06:10:06.869Z,44.30
2019-05-29T06:13:01.462Z,44.20
2019-05-29T06:15:55.435Z,44.00
2019-05-29T06:18:49.855Z,44.00
2019-05-29T06:21:47.084Z,43.70
2019-05-29T06:24:43.424Z,43.90
2019-05-29T06:27:47.161Z,43.80
2019-05-29T06:30:44.884Z,44.00
2019-05-29T06:33:39.467Z,43.80
2019-05-29T06:36:33.455Z,43.70
2019-05-29T06:39:27.761Z,43.80
2019-05-29T06:42:31.774Z,43.80
2019-05-29T06:45:42.448Z,43.80
2019-05-29T06:48:58.697Z,43.80
2019-05-29T06:51:43.713Z,44.70
2019-05-29T06:54:39.891Z,44.90
2019-05-29T06:57:38.102Z,44.90
2019-05-29T07:00:37.385Z,45.00
2019-05-29T07:03:35.614Z,44.90
2019-05-29T07:06:44.705Z,44.80
2019-05-29T07:09:45.484Z,44.80
2019-05-29T07:12:44.505Z,45.20
2019-05-29T07:15:40.662Z,45.30
2019-05-29T07:18:34.397Z,45.10
2019-05-29T07:21:33.994Z,45.00
2019-05-29T07:24:32.239Z,45.20
2019-05-29T07:27:43.519Z,45.70
2019-05-29T07:30:44.235Z,45.20
2019-05-29T07:33:34.993Z,45.10
2019-05-29T07:36:29.499Z,44.80
2019-05-29T07:39:24.012Z,44.70
2019-05-29T07:42:29.548Z,44.70
2019-05-29T07:45:29.931Z,44.50
2019-05-29T07:48:40.528Z,44.70
2019-05-29T07:51:47.188Z,45.00
2019-05-29T07:54:41.595Z,44.90
2019-05-29T07:57:35.461Z,44.80
2019-05-29T08:00:35.477Z,44.70
2019-05-29T08:03:23.162Z,45.80
2019-05-29T08:06:17.266Z,45.60
2019-05-29T08:09:14.309Z,45.40
2019-05-29T08:12:11.565Z,45.10
2019-05-29T08:15:06.939Z,44.90
2019-05-29T08:18:01.023Z,44.60
2019-05-29T08:20:57.205Z,44.60
2019-05-29T08:23:55.161Z,44.60
2019-05-29T08:26:51.044Z,44.40
2019-05-29T08:29:44.741Z,44.10
2019-05-29T08:32:40.816Z,44.60
2019-05-29T08:35:34.588Z,44.60
2019-05-29T08:38:27.633Z,44.80
2019-05-29T08:41:21.778Z,44.80
2019-05-29T08:44:18.931Z,44.50
2019-05-29T08:47:13.615Z,45.40
2019-05-29T08:50:18.118Z,45.70
2019-05-29T08:53:06.282Z,45.70
2019-05-29T08:56:06.679Z,46.20
2019-05-29T08:59:09.338Z,46.00
2019-05-29T09:02:11.677Z,45.90
2019-05-29T09:05:14.743Z,45.50
2019-05-29T09:08:13.733Z,45.60
2019-05-29T09:11:19.850Z,45.80
2019-05-29T09:14:24.283Z,45.70
2019-05-29T09:17:34.590Z,45.80
2019-05-29T09:21:01.020Z,46.30
2019-05-29T09:23:38.534Z,47.00
2019-05-29T09:26:46.419Z,47.60
2019-05-29T09:29:43.697Z,48.10
2019-05-29T09:32:50.939Z,48.60
2019-05-29T09:35:45.749Z,48.90
2019-05-29T09:38:46.425Z,49.20
2019-05-29T09:41:42.946Z,49.60
2019-05-29T09:44:39.875Z,49.70
2019-05-29T09:47:36.913Z,50.00
2019-05-29T09:50:50.129Z,50.10
2019-05-29T09:53:49.462Z,50.40
2019-05-29T09:56:54.920Z,50.10
2019-05-29T09:59:56.413Z,49.30
2019-05-29T10:02:55.428Z,48.40
2019-05-29T10:06:09.325Z,47.60
2019-05-29T10:09:11.840Z,47.30
2019-05-29T10:12:10.445Z,46.90
2019-05-29T10:15:06.452Z,46.90
2019-05-29T10:18:07.382Z,46.80
2019-05-29T10:21:05.129Z,45.70
2019-05-29T10:24:02.070Z,45.60
2019-05-29T10:27:10.096Z,45.40
2019-05-29T10:30:14.631Z,45.10
2019-05-29T10:33:13.065Z,44.80
2019-05-29T10:36:15.547Z,44.70
2019-05-29T10:39:19.660Z,44.40
2019-05-29T10:42:24.761Z,44.30
2019-05-29T10:45:24.418Z,44.00
2019-05-29T10:48:22.354Z,43.40
2019-05-29T10:51:21.465Z,43.40
2019-05-29T10:54:19.880Z,43.60
2019-05-29T10:57:19.018Z,44.10
2019-05-29T11:00:19.968Z,43.80
2019-05-29T11:03:19.059Z,44.00
2019-05-29T11:06:25.901Z,44.00
2019-05-29T11:09:43.337Z,43.90
2019-05-29T11:12:27.977Z,43.80
2019-05-29T11:15:28.482Z,44.20
2019-05-29T11:18:49.738Z,44.00
2019-05-29T11:21:44.278Z,43.90
2019-05-29T11:24:38.160Z,43.90
2019-05-29T11:27:31.592Z,43.90
2019-05-29T11:30:26.324Z,43.90
2019-05-29T11:33:29.089Z,43.90
2019-05-29T11:36:21.945Z,43.80
2019-05-29T11:39:17.537Z,43.80
2019-05-29T11:42:26.311Z,44.00
2019-05-29T11:45:05.211Z,44.00
2019-05-29T11:48:01.626Z,44.00
2019-05-29T11:50:56.180Z,44.10
2019-05-29T11:53:51.335Z,44.10
2019-05-29T11:56:46.109Z,44.20
2019-05-29T11:59:45.696Z,45.10
2019-05-29T12:03:07.928Z,44.10
2019-05-29T12:06:16.634Z,44.30
2019-05-29T12:09:31.306Z,43.80
2019-05-29T12:12:28.200Z,43.50
2019-05-29T12:16:02.404Z,43.00
2019-05-29T12:19:15.896Z,42.90
2019-05-29T12:23:07.011Z,42.60
2019-05-29T12:25:43.525Z,42.40
2019-05-29T12:28:39.016Z,42.20
2019-05-29T12:31:37.366Z,42.20
2019-05-29T12:34:36.557Z,42.40
2019-05-29T12:37:31.498Z,42.90
2019-05-29T12:40:26.833Z,43.30
2019-05-29T12:43:27.591Z,43.30
2019-05-29T12:46:22.448Z,43.40
2019-05-29T12:49:20.560Z,43.00
2019-05-29T12:52:15.724Z,42.40
2019-05-29T12:55:12.946Z,42.00
2019-05-29T12:58:06.266Z,41.90
2019-05-29T13:01:02.811Z,42.00
2019-05-29T13:03:58.650Z,42.00
2019-05-29T13:06:54.355Z,41.90
2019-05-29T13:09:48.429Z,42.00
2019-05-29T13:12:44.673Z,42.00
2019-05-29T13:15:39.568Z,42.00
2019-05-29T13:18:35.489Z,42.20
2019-05-29T13:21:30.338Z,42.30
2019-05-29T13:24:24.454Z,42.20
2019-05-29T13:27:22.926Z,42.40
2019-05-29T13:30:17.318Z,42.40
2019-05-29T13:33:11.625Z,42.50
2019-05-29T13:36:06.696Z,42.40
2019-05-29T13:39:02.243Z,42.60
2019-05-29T13:41:58.603Z,42.70
2019-05-29T13:44:58.949Z,43.30
2019-05-29T13:47:52.669Z,43.10
2019-05-29T13:50:48.972Z,43.50
2019-05-29T13:54:01.932Z,43.90
